createdAt,value
2018-05-19T00:02:05.526Z,14.20
2018-05-19T00:04:34.021Z,15.80
2018-05-19T00:07:02.514Z,11.03
2018-05-19T00:09:31.027Z,9.90
2018-05-19T00:11:59.569Z,17.20
2018-05-19T00:14:28.183Z,13.00
2018-05-19T00:16:57.340Z,17.80
2018-05-19T00:19:26.606Z,12.40
2018-05-19T00:21:57.535Z,12.77
2018-05-19T00:24:26.425Z,9.40
2018-05-19T00:26:54.886Z,13.23
2018-05-19T00:29:23.403Z,14.20
2018-05-19T00:31:51.888Z,14.50
2018-05-19T00:34:20.363Z,13.83
2018-05-19T00:36:49.589Z,14.90
2018-05-19T00:39:18.832Z,14.87
2018-05-19T00:41:47.308Z,13.60
2018-05-19T00:44:15.793Z,10.60
2018-05-19T00:46:44.294Z,10.53
2018-05-19T00:49:12.752Z,14.73
2018-05-19T00:51:41.312Z,14.03
2018-05-19T00:54:10.096Z,9.67
2018-05-19T00:56:38.592Z,11.90
2018-05-19T00:59:07.043Z,12.50
2018-05-19T01:01:35.475Z,18.10
2018-05-19T01:04:04.727Z,11.53
2018-05-19T01:06:33.138Z,8.20
2018-05-19T01:09:01.613Z,10.80
2018-05-19T01:11:30.838Z,13.13
2018-05-19T01:14:00.126Z,13.57
2018-05-19T01:16:28.551Z,18.13
2018-05-19T01:18:56.979Z,8.73
2018-05-19T01:21:25.503Z,10.40
2018-05-19T01:23:53.957Z,9.53
2018-05-19T01:26:22.429Z,9.40
2018-05-19T01:28:50.905Z,13.40
2018-05-19T01:31:19.981Z,12.67
2018-05-19T01:33:48.428Z,8.87
2018-05-19T01:36:16.951Z,9.20
2018-05-19T01:38:45.487Z,15.73
2018-05-19T01:41:13.987Z,9.20
2018-05-19T01:43:42.452Z,9.50
2018-05-19T01:46:11.177Z,11.40
2018-05-19T01:48:39.629Z,13.10
2018-05-19T01:51:08.118Z,12.40
2018-05-19T01:53:36.587Z,7.70
2018-05-19T01:56:05.091Z,11.73
2018-05-19T01:58:33.511Z,8.80
2018-05-19T02:01:01.975Z,13.80
2018-05-19T02:03:30.399Z,9.43
2018-05-19T02:05:59.594Z,12.33
2018-05-19T02:08:28.040Z,8.60
2018-05-19T02:10:56.469Z,9.87
2018-05-19T02:13:24.938Z,11.17
2018-05-19T02:15:54.142Z,11.03
2018-05-19T02:18:22.556Z,10.40
2018-05-19T02:20:51.029Z,10.70
2018-05-19T02:23:19.461Z,9.50
2018-05-19T02:25:47.923Z,9.50
2018-05-19T02:28:16.623Z,11.73
2018-05-19T02:30:45.049Z,8.57
2018-05-19T02:33:13.556Z,9.57
2018-05-19T02:35:42.021Z,10.40
2018-05-19T02:38:10.470Z,12.20
2018-05-19T02:40:39.112Z,13.90
2018-05-19T02:43:07.597Z,12.40
2018-05-19T02:45:36.035Z,12.50
2018-05-19T02:48:05.722Z,13.67
2018-05-19T02:50:35.429Z,10.93
2018-05-19T02:53:07.147Z,15.30
2018-05-19T02:55:35.614Z,11.17
2018-05-19T02:58:04.930Z,14.97
2018-05-19T03:00:33.430Z,11.03
2018-05-19T03:03:01.908Z,10.80
2018-05-19T03:05:30.648Z,13.50
2018-05-19T03:07:59.107Z,9.43
2018-05-19T03:10:27.535Z,14.00
2018-05-19T03:12:56.042Z,8.83
2018-05-19T03:15:24.460Z,11.17
2018-05-19T03:17:53.957Z,13.70
2018-05-19T03:20:22.415Z,11.60
2018-05-19T03:22:51.091Z,14.17
2018-05-19T03:25:20.328Z,11.37
2018-05-19T03:27:49.519Z,12.40
2018-05-19T03:30:17.935Z,10.20
2018-05-19T03:32:46.391Z,9.93
2018-05-19T03:35:14.871Z,15.13
2018-05-19T03:37:44.121Z,11.10
2018-05-19T03:40:12.556Z,11.87
2018-05-19T03:42:41.009Z,13.60
2018-05-19T03:45:09.449Z,13.33
2018-05-19T03:47:37.891Z,11.43
2018-05-19T03:50:06.357Z,15.50
2018-05-19T03:52:34.765Z,13.00
2018-05-19T03:55:03.221Z,13.80
2018-05-19T03:57:50.005Z,16.53
2018-05-19T04:03:34.440Z,15.40
2018-05-19T04:06:02.865Z,10.70
2018-05-19T04:08:31.335Z,14.47
2018-05-19T04:10:59.819Z,10.00
2018-05-19T04:13:28.297Z,14.17
2018-05-19T04:15:56.757Z,14.97
2018-05-19T04:18:25.268Z,18.60
2018-05-19T04:20:53.693Z,19.00
2018-05-19T04:23:22.140Z,13.63
2018-05-19T04:25:51.371Z,10.47
2018-05-19T04:28:19.813Z,12.83
2018-05-19T04:30:48.237Z,20.20
2018-05-19T04:33:16.713Z,16.30
2018-05-19T04:35:45.216Z,17.33
2018-05-19T04:38:13.929Z,14.37
2018-05-19T04:40:42.406Z,21.80
2018-05-19T04:43:10.936Z,16.27
2018-05-19T04:45:39.394Z,18.53
2018-05-19T04:48:07.908Z,17.60
2018-05-19T04:50:36.384Z,14.53
2018-05-19T04:53:05.011Z,18.10
2018-05-19T04:55:33.570Z,23.03
2018-05-19T04:58:02.085Z,20.50
2018-05-19T05:00:30.577Z,17.07
2018-05-19T05:02:59.112Z,15.87
2018-05-19T05:05:27.596Z,17.93
2018-05-19T05:07:56.037Z,17.13
2018-05-19T05:10:28.559Z,15.80
2018-05-19T05:12:57.044Z,16.90
2018-05-19T05:15:25.505Z,18.10
2018-05-19T05:17:54.047Z,15.80
2018-05-19T05:20:22.545Z,21.90
2018-05-19T05:22:51.051Z,17.27
2018-05-19T05:25:19.599Z,17.20
2018-05-19T05:27:48.098Z,15.97
2018-05-19T05:30:16.603Z,20.13
2018-05-19T05:32:45.115Z,17.53
2018-05-19T05:35:13.610Z,19.80
2018-05-19T05:37:42.125Z,18.30
2018-05-19T05:40:10.595Z,17.40
2018-05-19T05:42:39.095Z,25.13
2018-05-19T05:45:08.337Z,17.97
2018-05-19T05:47:36.829Z,19.00
2018-05-19T05:50:05.616Z,20.13
2018-05-19T05:52:34.712Z,19.00
2018-05-19T05:55:03.249Z,22.17
2018-05-19T05:57:32.479Z,18.83
2018-05-19T06:00:00.933Z,21.27
2018-05-19T06:02:29.822Z,19.63
2018-05-19T06:04:58.271Z,17.93
2018-05-19T06:07:26.771Z,26.30
2018-05-19T06:09:55.282Z,25.57
2018-05-19T06:12:23.804Z,24.83
2018-05-19T06:14:53.087Z,21.10
2018-05-19T06:17:21.552Z,21.53
2018-05-19T06:19:50.068Z,24.17
2018-05-19T06:22:18.537Z,19.40
2018-05-19T06:24:47.011Z,28.40
2018-05-19T06:27:15.467Z,17.97
2018-05-19T06:29:44.715Z,21.23
2018-05-19T06:32:13.210Z,19.80
2018-05-19T06:34:44.206Z,21.60
2018-05-19T06:37:12.741Z,21.47
2018-05-19T06:39:41.792Z,24.13
2018-05-19T06:42:11.125Z,23.27
2018-05-19T06:44:39.555Z,19.90
2018-05-19T06:47:08.043Z,20.93
2018-05-19T06:49:36.516Z,17.70
2018-05-19T06:52:05.417Z,20.07
2018-05-19T06:54:33.983Z,23.63
2018-05-19T06:57:02.521Z,17.03
2018-05-19T06:59:30.958Z,23.90
2018-05-19T07:01:59.437Z,15.33
2018-05-19T07:04:28.029Z,22.53
2018-05-19T07:06:56.534Z,21.10
2018-05-19T07:09:25.350Z,15.60
2018-05-19T07:11:53.911Z,18.20
2018-05-19T07:14:22.476Z,22.63
2018-05-19T07:16:50.982Z,22.50
2018-05-19T07:19:19.473Z,19.67
2018-05-19T07:21:47.915Z,18.90
2018-05-19T07:24:16.437Z,16.63
2018-05-19T07:26:45.661Z,16.70
2018-05-19T07:29:15.433Z,17.60
2018-05-19T07:31:43.926Z,27.20
2018-05-19T07:34:12.462Z,17.10
2018-05-19T07:36:40.968Z,26.67
2018-05-19T07:39:09.428Z,21.07
2018-05-19T07:41:38.738Z,21.20
2018-05-19T07:44:07.195Z,26.10
2018-05-19T07:46:39.089Z,19.00
2018-05-19T07:49:07.609Z,20.43
2018-05-19T07:51:36.104Z,22.73
2018-05-19T07:54:04.599Z,30.70
2018-05-19T07:56:33.072Z,23.73
2018-05-19T07:59:01.592Z,29.77
2018-05-19T08:01:30.115Z,24.23
2018-05-19T08:03:58.607Z,21.23
2018-05-19T08:06:27.130Z,29.33
2018-05-19T08:08:55.664Z,28.77
2018-05-19T08:11:24.134Z,21.20
2018-05-19T08:13:52.631Z,27.90
2018-05-19T08:16:21.123Z,21.23
2018-05-19T08:18:49.598Z,30.53
2018-05-19T08:21:18.091Z,27.63
2018-05-19T08:23:46.573Z,20.47
2018-05-19T08:26:15.154Z,27.73
2018-05-19T08:28:43.651Z,23.67
2018-05-19T08:31:13.084Z,26.30
2018-05-19T08:33:41.643Z,23.83
2018-05-19T08:36:10.125Z,20.70
2018-05-19T08:38:38.642Z,21.63
2018-05-19T08:41:07.157Z,26.50
2018-05-19T08:43:35.661Z,25.90
2018-05-19T08:46:04.143Z,25.50
2018-05-19T08:48:32.598Z,23.50
2018-05-19T08:51:02.064Z,32.20
2018-05-19T08:53:37.215Z,26.63
2018-05-19T08:56:05.722Z,18.43
2018-05-19T08:58:34.215Z,24.33
2018-05-19T09:01:02.920Z,32.20
2018-05-19T09:03:31.464Z,24.73
2018-05-19T09:06:00.011Z,29.50
2018-05-19T09:08:28.489Z,23.63
2018-05-19T09:10:56.957Z,22.03
2018-05-19T09:13:25.454Z,24.77
2018-05-19T09:15:53.874Z,26.03
2018-05-19T09:18:22.350Z,19.23
2018-05-19T09:20:50.806Z,22.10
2018-05-19T09:23:19.385Z,23.73
2018-05-19T09:25:47.850Z,20.90
2018-05-19T09:28:16.332Z,21.90
2018-05-19T09:30:44.826Z,21.47
2018-05-19T09:33:13.346Z,19.63
2018-05-19T09:35:41.914Z,18.63
2018-05-19T09:38:10.323Z,17.93
2018-05-19T09:40:38.767Z,19.20
2018-05-19T09:43:07.211Z,26.30
2018-05-19T09:45:35.720Z,20.23
2018-05-19T09:48:04.321Z,19.30
2018-05-19T09:50:32.765Z,21.07
2018-05-19T09:53:01.320Z,23.93
2018-05-19T09:55:46.430Z,22.10
2018-05-19T09:58:15.053Z,18.17
2018-05-19T10:00:43.517Z,18.60
2018-05-19T10:03:12.014Z,26.33
2018-05-19T10:05:40.475Z,21.27
2018-05-19T10:08:08.989Z,22.10
2018-05-19T10:10:37.449Z,22.17
2018-05-19T10:13:05.925Z,21.80
2018-05-19T10:15:34.488Z,20.37
2018-05-19T10:18:03.029Z,19.80
2018-05-19T10:20:31.459Z,23.00
2018-05-19T10:22:59.948Z,20.03
2018-05-19T10:25:32.777Z,19.87
2018-05-19T10:28:01.280Z,21.90
2018-05-19T10:30:29.796Z,19.53
2018-05-19T10:32:58.309Z,18.47
2018-05-19T10:35:26.821Z,21.30
2018-05-19T10:37:55.289Z,19.75
2018-05-19T10:40:24.532Z,20.93
2018-05-19T10:42:52.997Z,21.60
2018-05-19T10:45:21.470Z,18.90
2018-05-19T10:47:50.552Z,18.97
2018-05-19T10:50:19.036Z,18.20
2018-05-19T10:52:47.462Z,18.70
2018-05-19T10:55:15.936Z,21.53
2018-05-19T10:57:44.421Z,19.07
2018-05-19T11:00:12.861Z,21.27
2018-05-19T11:02:41.330Z,21.27
2018-05-19T11:05:09.785Z,20.30
2018-05-19T11:07:39.025Z,20.13
2018-05-19T11:10:07.548Z,21.57
2018-05-19T11:12:36.151Z,19.60
2018-05-19T11:15:04.629Z,22.20
2018-05-19T11:17:33.067Z,22.97
2018-05-19T11:20:01.561Z,20.50
2018-05-19T11:22:30.030Z,22.53
2018-05-19T11:24:58.513Z,23.70
2018-05-19T11:27:27.753Z,21.97
2018-05-19T11:29:56.229Z,22.40
2018-05-19T11:32:24.720Z,22.97
2018-05-19T11:34:53.173Z,19.50
2018-05-19T11:37:21.692Z,23.97
2018-05-19T11:39:50.191Z,20.77
2018-05-19T11:42:18.716Z,23.67
2018-05-19T11:44:47.978Z,24.50
2018-05-19T11:47:16.444Z,22.90
2018-05-19T11:49:45.721Z,19.97
2018-05-19T11:52:14.200Z,23.80
2018-05-19T11:54:42.688Z,22.17
2018-05-19T11:57:11.124Z,19.90
2018-05-19T11:59:39.615Z,24.20
2018-05-19T12:02:08.112Z,22.40
2018-05-19T12:04:36.566Z,21.50
2018-05-19T12:07:05.072Z,22.07
2018-05-19T12:09:47.869Z,19.57
2018-05-19T12:12:20.248Z,19.40
2018-05-19T12:14:48.713Z,19.53
2018-05-19T12:17:17.224Z,18.17
2018-05-19T12:19:45.687Z,19.10
2018-05-19T12:22:14.179Z,18.17
2018-05-19T12:25:06.466Z,21.47
2018-05-19T12:27:34.954Z,19.13
2018-05-19T12:30:03.436Z,18.40
2018-05-19T12:32:31.879Z,18.00
2018-05-19T12:35:00.427Z,17.33
2018-05-19T12:37:37.143Z,16.83
2018-05-19T12:40:05.641Z,18.13
2018-05-19T12:42:34.140Z,17.90
2018-05-19T12:45:08.696Z,15.63
2018-05-19T12:48:05.751Z,16.93
2018-05-19T12:50:34.242Z,19.63
2018-05-19T12:56:40.443Z,19.30
2018-05-19T12:59:08.956Z,19.03
2018-05-19T13:01:37.441Z,20.50
2018-05-19T13:07:07.430Z,20.47
2018-05-19T13:12:27.802Z,19.30
2018-05-19T13:14:57.078Z,19.10
2018-05-19T13:20:35.837Z,18.10
2018-05-19T13:23:04.331Z,17.73
2018-05-19T13:25:48.239Z,18.83
2018-05-19T13:28:16.954Z,20.80
2018-05-19T13:30:49.393Z,17.70
2018-05-19T13:33:17.918Z,20.53
2018-05-19T13:35:46.389Z,18.40
2018-05-19T13:38:14.860Z,17.97
2018-05-19T13:40:44.126Z,20.10
2018-05-19T13:43:12.662Z,18.57
2018-05-19T13:45:41.196Z,20.80
2018-05-19T13:51:19.746Z,18.90
2018-05-19T13:53:48.275Z,20.77
2018-05-19T13:56:16.755Z,19.07
2018-05-19T13:58:45.994Z,20.00
2018-05-19T14:01:14.512Z,19.90
2018-05-19T14:03:42.996Z,20.87
2018-05-19T14:06:12.305Z,22.20
2018-05-19T14:08:40.732Z,23.07
2018-05-19T14:11:09.243Z,21.73
2018-05-19T14:13:37.753Z,20.60
2018-05-19T14:16:06.284Z,19.07
2018-05-19T14:18:34.819Z,20.77
2018-05-19T14:21:03.297Z,21.13
2018-05-19T14:23:31.828Z,18.60
2018-05-19T14:26:00.295Z,19.17
2018-05-19T14:28:28.806Z,18.03
2018-05-19T14:30:57.376Z,21.70
2018-05-19T14:33:25.980Z,20.40
2018-05-19T14:35:54.458Z,20.83
2018-05-19T14:38:22.959Z,19.97
2018-05-19T14:40:51.491Z,19.20
2018-05-19T14:43:20.198Z,23.13
2018-05-19T14:45:48.708Z,22.20
2018-05-19T14:48:17.185Z,23.73
2018-05-19T14:50:45.651Z,25.77
2018-05-19T14:53:14.195Z,23.50
2018-05-19T14:55:42.628Z,26.20
2018-05-19T14:58:11.112Z,21.80
2018-05-19T15:00:39.601Z,23.63
2018-05-19T15:03:08.208Z,24.83
2018-05-19T15:05:38.738Z,22.00
2018-05-19T15:08:08.259Z,20.17
2018-05-19T15:10:36.769Z,17.83
2018-05-19T15:15:52.505Z,21.80
2018-05-19T15:18:20.971Z,21.70
2018-05-19T15:20:50.627Z,23.50
2018-05-19T15:23:19.158Z,21.73
2018-05-19T15:25:47.724Z,21.20
2018-05-19T15:28:16.215Z,27.70
2018-05-19T15:30:44.723Z,22.50
2018-05-19T15:33:13.151Z,21.47
2018-05-19T15:35:41.646Z,20.13
2018-05-19T15:38:10.154Z,19.53
2018-05-19T15:40:38.782Z,19.63
2018-05-19T15:43:07.231Z,18.00
2018-05-19T15:45:35.726Z,17.90
2018-05-19T15:48:04.193Z,17.03
2018-05-19T15:50:32.607Z,20.97
2018-05-19T15:53:01.183Z,21.07
2018-05-19T15:55:57.175Z,16.67
2018-05-19T15:58:25.725Z,17.53
2018-05-19T16:01:11.022Z,18.83
2018-05-19T16:03:41.153Z,17.60
2018-05-19T16:12:10.472Z,19.87
2018-05-19T16:14:39.056Z,20.57
2018-05-19T16:17:07.543Z,18.20
2018-05-19T16:19:38.359Z,20.07
2018-05-19T16:22:06.935Z,18.90
2018-05-19T16:24:35.568Z,18.60
2018-05-19T16:27:05.262Z,18.80
2018-05-19T16:29:33.793Z,18.07
2018-05-19T16:32:02.353Z,19.57
2018-05-19T16:34:30.948Z,20.00
2018-05-19T16:36:59.500Z,19.23
2018-05-19T16:39:28.921Z,23.27
2018-05-19T16:41:57.444Z,18.00
2018-05-19T16:44:26.018Z,19.03
2018-05-19T16:46:54.575Z,17.63
2018-05-19T16:49:23.579Z,17.87
2018-05-19T16:51:52.085Z,17.70
2018-05-19T16:54:20.811Z,16.37
2018-05-19T16:56:49.616Z,21.10
2018-05-19T17:02:28.335Z,17.93
2018-05-19T17:05:03.689Z,20.60
2018-05-19T17:07:51.618Z,18.43
2018-05-19T17:10:20.235Z,18.50
2018-05-19T17:12:48.950Z,18.27
2018-05-19T17:15:17.526Z,18.07
2018-05-19T17:17:46.068Z,17.30
2018-05-19T17:20:33.358Z,16.27
2018-05-19T17:23:09.515Z,16.70
2018-05-19T17:25:38.796Z,16.07
2018-05-19T17:40:03.877Z,15.53
2018-05-19T17:42:32.563Z,20.27
2018-05-19T17:45:01.112Z,18.30
2018-05-19T17:47:29.615Z,16.40
2018-05-19T17:49:58.138Z,17.20
2018-05-19T17:52:26.665Z,18.80
2018-05-19T17:54:55.242Z,17.00
2018-05-19T17:57:23.799Z,16.37
2018-05-19T17:59:52.396Z,19.03
2018-05-19T18:02:20.972Z,19.40
2018-05-19T18:04:49.571Z,15.50
2018-05-19T18:07:18.189Z,18.00
2018-05-19T18:09:46.730Z,17.80
2018-05-19T18:12:15.259Z,18.40
2018-05-19T18:14:50.328Z,18.47
2018-05-19T18:17:18.905Z,18.27
2018-05-19T18:19:51.306Z,20.30
2018-05-19T18:22:21.840Z,20.27
2018-05-19T18:24:54.705Z,22.63
2018-05-19T18:27:23.207Z,22.57
2018-05-19T18:29:53.063Z,25.77
2018-05-19T18:32:21.852Z,17.97
2018-05-19T18:34:51.721Z,23.63
2018-05-19T18:40:30.900Z,20.70
2018-05-19T18:42:59.430Z,20.70
2018-05-19T18:45:28.307Z,31.70
2018-05-19T18:47:57.767Z,23.53
2018-05-19T18:50:26.281Z,22.53
2018-05-19T18:53:00.612Z,22.00
2018-05-19T18:55:29.176Z,25.60
2018-05-19T18:57:57.689Z,22.80
2018-05-19T19:00:26.228Z,27.97
2018-05-19T19:02:54.851Z,24.00
2018-05-19T19:05:24.330Z,22.00
2018-05-19T19:07:52.831Z,22.67
2018-05-19T19:10:21.318Z,23.40
2018-05-19T19:12:49.791Z,24.00
2018-05-19T19:15:18.280Z,22.40
2018-05-19T19:17:47.538Z,19.60
2018-05-19T19:20:16.041Z,19.70
2018-05-19T19:22:44.585Z,38.03
2018-05-19T19:25:13.187Z,21.27
2018-05-19T19:27:41.679Z,19.47
2018-05-19T19:30:10.156Z,26.30
2018-05-19T19:32:38.744Z,19.60
2018-05-19T19:35:07.141Z,26.60
2018-05-19T19:37:36.450Z,22.73
2018-05-19T19:40:05.740Z,23.50
2018-05-19T19:42:34.288Z,22.63
2018-05-19T19:45:02.726Z,23.70
2018-05-19T19:47:32.502Z,21.57
2018-05-19T19:50:01.191Z,27.43
2018-05-19T19:52:29.670Z,18.40
2018-05-19T19:54:59.159Z,22.43
2018-05-19T19:57:27.670Z,25.97
2018-05-19T19:59:56.281Z,19.87
2018-05-19T20:02:25.019Z,25.20
2018-05-19T20:04:53.560Z,22.90
2018-05-19T20:07:22.108Z,24.70
2018-05-19T20:09:50.633Z,21.20
2018-05-19T20:12:19.135Z,20.90
2018-05-19T20:14:48.422Z,23.57
2018-05-19T20:17:16.993Z,20.37
2018-05-19T20:19:46.095Z,23.70
2018-05-19T20:22:14.663Z,26.70
2018-05-19T20:24:43.430Z,23.07
2018-05-19T20:27:11.982Z,25.03
2018-05-19T20:29:40.805Z,23.50
2018-05-19T20:32:09.412Z,24.33
2018-05-19T20:34:39.402Z,25.40
2018-05-19T20:37:09.447Z,25.57
2018-05-19T20:39:38.162Z,25.57
2018-05-19T20:42:07.829Z,26.47
2018-05-19T20:44:37.130Z,23.50
2018-05-19T20:47:06.718Z,22.23
2018-05-19T20:49:35.968Z,21.63
2018-05-19T20:52:04.923Z,21.67
2018-05-19T20:54:33.846Z,28.10
2018-05-19T20:57:02.403Z,22.60
2018-05-19T20:59:30.909Z,21.60
2018-05-19T21:01:59.385Z,26.40
2018-05-19T21:04:27.860Z,26.93
2018-05-19T21:06:56.296Z,24.53
2018-05-19T21:09:24.771Z,21.20
2018-05-19T21:11:53.263Z,22.63
2018-05-19T21:14:21.765Z,23.27
2018-05-19T21:16:50.390Z,24.03
2018-05-19T21:19:18.827Z,24.83
2018-05-19T21:21:47.350Z,22.27
2018-05-19T21:24:15.809Z,21.50
2018-05-19T21:26:44.295Z,25.47
2018-05-19T21:29:12.792Z,26.53
2018-05-19T21:31:42.051Z,21.60
2018-05-19T21:34:10.517Z,23.17
2018-05-19T21:36:38.984Z,24.10
2018-05-19T21:39:07.502Z,26.60
2018-05-19T21:41:35.991Z,24.30
2018-05-19T21:44:04.483Z,29.80
2018-05-19T21:46:32.927Z,30.00
2018-05-19T21:49:01.400Z,23.60
2018-05-19T21:51:29.972Z,22.77
2018-05-19T21:53:58.466Z,21.03
2018-05-19T21:56:26.957Z,24.60
2018-05-19T21:58:55.443Z,27.97
2018-05-19T22:01:23.911Z,29.13
2018-05-19T22:03:52.399Z,26.73
2018-05-19T22:06:20.958Z,23.00
2018-05-19T22:08:49.534Z,25.60
2018-05-19T22:11:18.125Z,22.73
2018-05-19T22:13:46.614Z,24.77
2018-05-19T22:16:15.856Z,30.00
2018-05-19T22:18:44.296Z,36.17
2018-05-19T22:21:12.985Z,32.73
2018-05-19T22:23:41.485Z,26.13
2018-05-19T22:26:09.939Z,27.87
2018-05-19T22:28:38.367Z,26.47
2018-05-19T22:31:06.842Z,28.43
2018-05-19T22:33:35.321Z,23.70
2018-05-19T22:36:03.806Z,27.10
2018-05-19T22:38:32.289Z,30.10
2018-05-19T22:41:00.740Z,24.73
2018-05-19T22:43:29.212Z,26.27
2018-05-19T22:45:57.690Z,26.87
2018-05-19T22:48:26.170Z,26.23
2018-05-19T22:50:54.672Z,29.93
2018-05-19T22:53:23.203Z,25.20
2018-05-19T22:55:51.709Z,28.23
2018-05-19T22:58:20.165Z,27.23
2018-05-19T23:00:48.646Z,25.93
2018-05-19T23:03:17.149Z,26.80
2018-05-19T23:05:45.609Z,37.43
2018-05-19T23:08:14.097Z,31.90
2018-05-19T23:10:42.561Z,31.70
2018-05-19T23:13:11.018Z,27.50
2018-05-19T23:15:39.493Z,26.93
2018-05-19T23:18:08.711Z,25.83
2018-05-19T23:20:37.958Z,25.10
2018-05-19T23:23:06.472Z,25.87
2018-05-19T23:25:50.129Z,23.13
2018-05-19T23:28:19.427Z,26.70
2018-05-19T23:31:07.215Z,26.03
2018-05-19T23:33:46.336Z,29.43
2018-05-19T23:42:24.687Z,30.40
2018-05-19T23:44:53.433Z,23.60
2018-05-19T23:47:46.743Z,26.40
2018-05-19T23:53:33.519Z,24.90
2018-05-19T23:59:00.995Z,24.23
